Time;durP1;ratioP1;P1;durP2;ratioP2;P2;SDS_P1;SDS_P2;PMS_P1;PMS_P2;Temp;Humidity;BMP_temperature;BMP_pressure;BME280_temperature;BME280_humidity;BME280_pressure;Samples;Min_cycle;Max_cycle;Signal;HPM_P1;HPM_P2
2022/02/08 00:00:02;;;;;;;2.75;0.40;;;;;;;19.31;44.75;101495.09;4988882;28;20262;-42
2022/02/08 00:02:29;;;;;;;1.42;0.43;;;;;;;19.32;44.89;101502.03;4989489;28;20110;-44
2022/02/08 00:04:56;;;;;;;2.45;0.30;;;;;;;19.31;44.72;101508.31;4990334;28;20062;-44
2022/02/08 00:07:22;;;;;;;1.00;0.50;;;;;;;19.32;44.75;101503.84;4973164;28;20597;-40
2022/02/08 00:09:47;;;;;;;2.97;0.80;;;;;;;19.31;44.72;101510.94;4988700;28;20121;-42
2022/02/08 00:12:13;;;;;;;1.15;0.40;;;;;;;19.31;44.74;101510.13;4988753;28;20092;-44
2022/02/08 00:14:38;;;;;;;1.20;0.50;;;;;;;19.31;44.80;101510.94;4990980;28;20129;-42
2022/02/08 00:17:04;;;;;;;2.95;0.52;;;;;;;19.31;44.69;101508.31;4971102;28;20069;-45
2022/02/08 00:19:29;;;;;;;2.20;0.50;;;;;;;19.30;44.54;101514.59;4989552;28;20136;-41
2022/02/08 00:21:55;;;;;;;1.17;0.30;;;;;;;19.29;44.25;101509.47;4989856;28;20479;-43
2022/02/08 00:24:21;;;;;;;1.92;0.38;;;;;;;19.27;44.28;101509.66;4989306;28;20030;-43
2022/02/08 00:26:46;;;;;;;3.38;0.30;;;;;;;19.25;44.28;101503.72;4987616;28;20036;-45
2022/02/08 00:29:13;;;;;;;1.80;0.50;;;;;;;19.24;44.42;101504.72;4988704;28;20109;-46
2022/02/08 00:31:38;;;;;;;2.13;0.47;;;;;;;19.24;44.52;101502.06;4971852;28;20030;-41
2022/02/08 00:34:04;;;;;;;1.45;0.35;;;;;;;19.25;44.61;101506.38;4990670;28;20541;-42
2022/02/08 00:36:29;;;;;;;1.10;0.40;;;;;;;19.22;44.43;101501.44;4989041;28;20030;-41
2022/02/08 00:38:55;;;;;;;1.02;0.40;;;;;;;19.21;44.40;101507.72;4989588;28;20036;-45
2022/02/08 00:41:23;;;;;;;1.63;0.40;;;;;;;19.20;44.56;101504.25;4990158;28;20030;-43
2022/02/08 00:44:37;;;;;;;1.15;0.40;;;;;;;19.20;44.49;101503.44;4971559;28;20034;-45
2022/02/08 00:46:47;;;;;;;3.30;1.10;;;;;;;19.17;44.48;101504.59;4985669;28;20042;-43
2022/02/08 00:49:13;;;;;;;0.77;0.30;;;;;;;19.16;44.60;101505.59;4989294;28;20442;-41
2022/02/08 00:51:46;;;;;;;0.93;0.30;;;;;;;19.16;44.56;101502.94;4989412;28;20394;-40
2022/02/08 00:54:15;;;;;;;0.93;0.40;;;;;;;19.16;44.48;101512.69;4972827;28;20038;-43
2022/02/08 00:56:41;;;;;;;1.27;0.50;;;;;;;19.15;44.67;101511.06;4969753;28;20030;-45
2022/02/08 00:59:07;;;;;;;1.13;0.52;;;;;;;19.14;44.38;101514.69;4987733;28;20493;-41
2022/02/08 01:01:36;;;;;;;0.80;0.40;;;;;;;19.13;44.37;101508.59;4988354;28;20027;-44
2022/02/08 01:04:07;;;;;;;1.65;0.50;;;;;;;19.12;44.15;101506.94;4989837;28;20117;-43
2022/02/08 01:06:33;;;;;;;1.30;0.40;;;;;;;19.11;44.02;101504.47;4971255;28;20506;-41
2022/02/08 01:09:11;;;;;;;1.10;0.50;;;;;;;19.12;43.96;101504.31;4988378;28;20065;-43
2022/02/08 01:11:38;;;;;;;2.38;0.40;;;;;;;19.11;44.12;101505.28;4969987;28;20502;-43
2022/02/08 01:14:04;;;;;;;1.55;0.57;;;;;;;19.11;44.15;101512.41;4989151;28;20038;-41
2022/02/08 01:16:30;;;;;;;2.75;0.40;;;;;;;19.11;44.30;101512.41;4987292;28;20027;-43
2022/02/08 01:18:58;;;;;;;1.67;0.68;;;;;;;19.11;44.25;101520.31;4987996;28;20033;-42
2022/02/08 01:21:24;;;;;;;1.42;0.30;;;;;;;19.10;44.33;101518.69;4988308;28;20026;-42
2022/02/08 01:23:49;;;;;;;1.38;0.57;;;;;;;19.09;44.32;101517.03;4988056;28;20046;-43
2022/02/08 01:26:17;;;;;;;1.58;0.50;;;;;;;19.07;44.40;101530.41;4988442;28;20542;-44
2022/02/08 01:28:51;;;;;;;1.35;0.30;;;;;;;19.06;44.42;101531.41;4986051;28;20030;-43
2022/02/08 01:31:18;;;;;;;1.33;0.40;;;;;;;19.05;44.37;101540.31;4969792;28;20038;-44
2022/02/08 01:37:00;;;;;;;1.63;0.40;;;;;;;19.03;44.39;101546.78;4987944;28;20038;-42
2022/02/08 01:39:33;;;;;;;1.75;0.50;;;;;;;19.01;44.33;101551.41;4987931;28;20109;-43
2022/02/08 01:44:56;;;;;;;0.70;0.30;;;;;;;19.00;44.25;101555.03;4988393;28;20088;-41
2022/02/08 01:47:30;;;;;;;0.90;0.30;;;;;;;18.99;44.26;101550.75;4980955;28;20041;-42
2022/02/08 01:50:10;;;;;;;2.00;0.38;;;;;;;18.99;44.13;101553.41;4969973;28;20037;-43
2022/02/08 01:52:35;;;;;;;1.45;0.40;;;;;;;18.98;44.24;101551.75;4987375;28;20035;-44
2022/02/08 01:55:02;;;;;;;2.25;0.40;;;;;;;18.97;44.24;101558.03;4989549;28;20046;-44
2022/02/08 01:57:27;;;;;;;1.05;0.40;;;;;;;18.97;44.09;101561.50;4986806;28;20027;-43
2022/02/08 01:59:53;;;;;;;1.00;0.40;;;;;;;18.96;43.86;101559.03;4987009;28;20096;-40
2022/02/08 02:02:19;;;;;;;1.20;0.40;;;;;;;18.96;43.93;101564.31;4985729;28;20033;-44
2022/02/08 02:04:45;;;;;;;1.00;0.50;;;;;;;18.96;43.88;101564.31;4988709;28;20026;-43
2022/02/08 02:07:10;;;;;;;1.70;0.50;;;;;;;18.96;43.93;101564.31;4986381;28;20371;-41
2022/02/08 02:09:38;;;;;;;1.23;0.40;;;;;;;18.94;43.77;101561.84;4987819;28;20599;-43
2022/02/08 02:12:07;;;;;;;0.80;0.22;;;;;;;18.95;43.77;101567.94;5168150;23;20556;-46
2022/02/08 02:14:37;;;;;;;0.93;0.32;;;;;;;18.94;43.70;101571.56;4966808;28;20141;-42
2022/02/08 02:17:04;;;;;;;1.92;0.40;;;;;;;18.95;43.54;101573.22;4967750;28;20089;-41
2022/02/08 02:19:30;;;;;;;2.88;0.32;;;;;;;18.95;43.81;101573.22;4985272;28;20023;-44
2022/02/08 02:21:58;;;;;;;1.33;0.30;;;;;;;18.94;43.66;101577.69;4979710;28;20485;-42
2022/02/08 02:24:24;;;;;;;0.60;0.22;;;;;;;18.95;43.65;101589.88;4985784;28;20207;-41
2022/02/08 02:26:50;;;;;;;0.60;0.30;;;;;;;18.96;43.58;101585.44;4984184;28;20255;-40
2022/02/08 02:29:19;;;;;;;0.70;0.30;;;;;;;18.94;43.66;101580.31;4947058;29;20027;-45
2022/02/08 02:31:45;;;;;;;1.40;0.40;;;;;;;18.93;43.79;101586.59;4933290;28;20470;-41
2022/02/08 02:34:10;;;;;;;1.70;0.40;;;;;;;18.92;43.64;101595.50;4978943;28;20080;-42
2022/02/08 02:36:40;;;;;;;0.55;0.30;;;;;;;18.92;43.72;101605.25;4986159;28;20038;-44
2022/02/08 02:39:07;;;;;;;1.52;0.40;;;;;;;18.90;43.71;101603.59;4976908;28;20249;-41
2022/02/08 02:41:37;;;;;;;2.25;0.40;;;;;;;18.88;43.55;101600.34;4986893;28;20030;-45
2022/02/08 02:44:11;;;;;;;1.58;0.50;;;;;;;18.86;43.44;101593.59;4970724;28;20065;-43
2022/02/08 02:46:38;;;;;;;0.95;0.40;;;;;;;18.86;43.44;101602.34;4985943;28;20474;-40
2022/02/08 02:49:05;;;;;;;1.63;0.30;;;;;;;18.85;43.37;101600.69;4980939;28;20410;-42
2022/02/08 02:51:30;;;;;;;1.25;0.20;;;;;;;18.85;43.30;101607.78;4987266;28;20034;-41
2022/02/08 02:53:56;;;;;;;1.08;0.40;;;;;;;18.84;43.30;101608.78;4980657;28;20031;-40
2022/02/08 02:56:22;;;;;;;1.88;0.40;;;;;;;18.83;43.21;101617.69;4967651;28;20034;-42
2022/02/08 02:58:49;;;;;;;0.80;0.28;;;;;;;18.82;43.09;101622.16;4966560;28;20034;-41
2022/02/08 03:20:21;;;;;;;3.33;0.30;;;;;;;18.72;44.34;101657.66;4980962;28;20082;-42
2022/02/08 03:22:46;;;;;;;0.80;0.40;;;;;;;18.74;44.04;101672.31;4965222;28;20065;-43
2022/02/08 03:25:12;;;;;;;1.98;0.30;;;;;;;18.75;44.01;101681.91;4978404;28;20125;-42
2022/02/08 03:27:37;;;;;;;2.05;0.30;;;;;;;18.76;44.14;101670.34;4971881;28;20065;-42
2022/02/08 03:30:04;;;;;;;1.05;0.30;;;;;;;18.76;43.92;101674.81;4965363;28;20055;-42
2022/02/08 03:32:30;;;;;;;1.70;0.20;;;;;;;18.75;43.96;101671.34;4975990;28;20046;-41
2022/02/08 03:34:55;;;;;;;1.00;0.38;;;;;;;18.75;43.85;101683.72;4969150;28;20062;-41
2022/02/08 03:37:22;;;;;;;1.15;0.20;;;;;;;18.76;43.89;101693.28;4969820;28;20121;-39
2022/02/08 03:39:57;;;;;;;1.77;0.25;;;;;;;18.74;44.00;101704.00;4983851;28;20042;-42
2022/02/08 03:42:30;;;;;;;;;;;;;;;18.64;44.05;101708.63;4978320;28;20043;-39
2022/02/08 03:44:57;;;;;;;1.60;0.30;;;;;;;18.66;44.09;101704.00;4952510;28;20436;-39
2022/02/08 03:47:23;;;;;;;1.73;0.30;;;;;;;18.69;44.14;101705.50;4978947;28;20075;-41
2022/02/08 03:49:49;;;;;;;1.80;0.22;;;;;;;18.69;44.23;101706.31;4956575;28;20543;-43
2022/02/08 03:52:15;;;;;;;0.70;0.40;;;;;;;18.68;44.26;101709.13;4980438;28;20065;-47
2022/02/08 03:54:40;;;;;;;0.60;0.20;;;;;;;18.67;44.28;101710.94;4989166;28;20038;-42
2022/02/08 03:57:08;;;;;;;0.77;0.20;;;;;;;18.65;44.22;101712.94;4984286;28;20548;-40
2022/02/08 03:59:34;;;;;;;0.70;0.30;;;;;;;18.65;44.16;101709.47;4965344;28;20429;-42
2022/02/08 04:07:15;;;;;;;0.50;0.10;;;;;;;18.61;44.27;101713.44;4990771;28;20540;-42
2022/02/08 04:09:41;;;;;;;0.40;0.20;;;;;;;18.61;44.33;101718.69;4987709;28;20073;-43
2022/02/08 04:12:14;;;;;;;0.70;0.28;;;;;;;18.62;44.30;101726.47;4983064;28;20046;-40
2022/02/08 04:14:48;;;;;;;0.43;0.20;;;;;;;18.62;44.08;101737.00;4975075;28;20078;-42
2022/02/08 04:39:43;;;;;;;0.50;0.20;;;;;;;18.60;43.80;101753.97;4930598;29;20050;-39
2022/02/08 04:42:31;;;;;;;1.88;0.30;;;;;;;18.60;43.81;101746.06;4938505;29;20418;-41
2022/02/08 04:45:24;;;;;;;0.77;0.28;;;;;;;18.58;43.73;101752.31;4930714;29;20046;-39
2022/02/08 04:50:23;;;;;;;0.50;0.20;;;;;;;18.58;43.71;101762.88;4935552;29;20191;-41
2022/02/08 04:52:51;;;;;;;0.55;0.20;;;;;;;18.58;43.59;101757.59;4928821;29;20039;-42
2022/02/08 05:35:42;;;;;;;0.40;0.10;;;;;;;18.70;44.96;101795.09;4922635;29;20046;-41
2022/02/08 05:48:43;;;;;;;0.82;0.10;;;;;;;18.94;45.15;101825.09;4909620;29;20215;-43
2022/02/08 05:51:18;;;;;;;0.75;0.10;;;;;;;18.96;45.28;101818.66;4897663;29;20072;-42
2022/02/08 05:53:45;;;;;;;0.55;0.10;;;;;;;18.99;45.28;101823.59;4893631;29;20076;-39
2022/02/08 05:56:13;;;;;;;0.40;0.10;;;;;;;19.02;45.29;101825.91;4893136;29;20036;-40
2022/02/08 05:58:41;;;;;;;0.63;0.10;;;;;;;19.06;45.27;101829.06;4912139;29;20100;-42
2022/02/08 06:01:06;;;;;;;0.60;0.20;;;;;;;19.08;45.37;101837.63;4905451;29;20127;-43
2022/02/08 06:03:32;;;;;;;0.63;0.20;;;;;;;19.13;45.39;101840.59;4922778;29;20127;-40
2022/02/08 06:05:57;;;;;;;0.77;0.22;;;;;;;19.15;45.40;101841.25;4940434;28;20043;-45
2022/02/08 06:08:23;;;;;;;0.50;0.10;;;;;;;19.19;45.56;101853.97;4967257;28;20039;-40
2022/02/08 06:10:57;;;;;;;0.75;0.20;;;;;;;19.21;45.74;101848.53;4959272;28;20043;-43
2022/02/08 06:13:22;;;;;;;0.60;0.17;;;;;;;19.24;45.70;101850.81;4944383;28;20590;-42
2022/02/08 06:15:50;;;;;;;0.22;0.10;;;;;;;19.26;45.80;101862.06;4965487;28;20038;-43
2022/02/08 06:18:16;;;;;;;0.40;0.20;;;;;;;19.29;45.63;101863.53;4965860;28;20026;-43
2022/02/08 06:20:42;;;;;;;0.77;0.20;;;;;;;19.31;45.79;101866.84;4952617;28;20035;-45
2022/02/08 06:23:08;;;;;;;0.40;0.10;;;;;;;19.33;45.67;101868.31;4962995;28;20045;-45
2022/02/08 06:25:34;;;;;;;0.40;0.20;;;;;;;19.36;45.49;101869.81;4965950;28;20041;-40
2022/02/08 06:27:59;;;;;;;0.60;0.15;;;;;;;19.39;45.57;101882.66;4948626;28;20059;-43
2022/02/08 06:30:25;;;;;;;0.50;0.20;;;;;;;19.41;45.44;101892.06;4947228;28;20125;-43
2022/02/08 06:32:53;;;;;;;0.38;0.20;;;;;;;19.45;45.40;101893.38;4950379;28;20059;-43
2022/02/08 06:35:28;;;;;;;0.40;0.10;;;;;;;19.49;45.30;101900.00;4951728;28;20343;-41
2022/02/08 06:37:54;;;;;;;0.28;0.10;;;;;;;19.52;45.12;101899.69;4963033;28;20173;-41
2022/02/08 06:40:20;;;;;;;0.47;0.10;;;;;;;19.55;45.18;101909.91;4962968;28;20038;-47
2022/02/08 06:42:46;;;;;;;1.75;0.10;;;;;;;19.60;45.00;101912.06;4953982;28;20031;-42
2022/02/08 06:45:15;;;;;;;0.30;0.20;;;;;;;19.63;44.77;101916.19;4959055;28;20042;-44
2022/02/08 06:47:42;;;;;;;0.50;0.10;;;;;;;19.66;44.55;101921.97;4945861;28;20198;-41
2022/02/08 06:50:10;;;;;;;8.60;0.38;;;;;;;19.69;44.44;101918.16;4955094;28;20043;-42
2022/02/08 06:52:35;;;;;;;0.60;0.20;;;;;;;19.71;44.15;101913.53;4960416;28;20035;-41
2022/02/08 06:55:02;;;;;;;0.85;0.10;;;;;;;19.74;44.00;101918.47;4958774;28;20054;-43
2022/02/08 06:57:30;;;;;;;0.85;0.20;;;;;;;19.81;44.04;101924.75;4957260;28;20098;-47
2022/02/08 07:00:02;;;;;;;1.38;0.10;;;;;;;19.86;43.81;101925.03;4934033;28;20043;-45
2022/02/08 07:02:27;;;;;;;2.10;0.20;;;;;;;19.89;43.86;101930.81;4932744;29;20122;-46
2022/02/08 07:04:53;;;;;;;1.20;0.20;;;;;;;19.92;43.74;101929.66;4952462;28;20482;-48
2022/02/08 07:07:18;;;;;;;0.40;0.10;;;;;;;19.94;43.60;101932.13;4962468;28;20033;-46
2022/02/08 07:09:46;;;;;;;0.60;0.17;;;;;;;19.95;43.53;101937.25;4967716;28;20566;-44
2022/02/08 07:12:11;;;;;;;0.98;0.30;;;;;;;19.96;43.64;101946.00;4944428;28;20043;-43
2022/02/08 07:14:38;;;;;;;1.60;0.10;;;;;;;19.95;43.29;101945.19;4947258;29;20453;-39
2022/02/08 07:17:04;;;;;;;0.22;0.10;;;;;;;19.95;43.23;101953.13;4947360;28;20035;-40
2022/02/08 07:19:30;;;;;;;0.30;0.10;;;;;;;19.95;43.41;101949.66;4966416;28;20081;-42
2022/02/08 07:21:55;;;;;;;2.60;0.28;;;;;;;19.94;43.29;101945.34;4950105;28;20503;-44
2022/02/08 07:24:21;;;;;;;2.35;0.13;;;;;;;19.92;43.39;101948.16;4962410;28;20109;-44
2022/02/08 07:26:47;;;;;;;0.75;0.15;;;;;;;19.92;43.39;101958.75;4945554;28;20035;-40
2022/02/08 07:29:14;;;;;;;1.98;0.10;;;;;;;19.91;43.48;101951.81;4951505;28;20165;-54
2022/02/08 07:31:49;;;;;;;0.95;0.10;;;;;;;19.94;43.35;101953.28;4948845;28;20398;-42
2022/02/08 07:34:27;;;;;;;1.08;0.30;;;;;;;19.98;43.97;101954.59;4949653;28;20383;-43
2022/02/08 07:37:02;;;;;;;1.98;0.25;;;;;;;20.00;44.56;101960.53;4948474;28;20063;-42
2022/02/08 07:39:39;;;;;;;0.73;0.20;;;;;;;19.97;44.68;101960.88;4950666;28;20041;-42
2022/02/08 07:42:06;;;;;;;1.10;0.20;;;;;;;19.93;44.67;101959.56;4965335;28;20073;-42
2022/02/08 07:44:32;;;;;;;3.25;0.47;;;;;;;19.88;44.58;101957.44;4966153;28;20093;-44
2022/02/08 07:46:57;;;;;;;1.35;0.20;;;;;;;19.86;44.67;101954.13;4964693;28;20143;-42
2022/02/08 07:49:23;;;;;;;0.50;0.20;;;;;;;19.84;44.38;101958.78;4951389;28;20468;-43
2022/02/08 07:51:48;;;;;;;4.45;0.20;;;;;;;19.83;44.28;101967.72;4948849;29;20070;-40
2022/02/08 07:54:14;;;;;;;1.33;0.25;;;;;;;19.85;44.31;101960.41;4943235;28;20031;-42
2022/02/08 07:56:40;;;;;;;0.40;0.15;;;;;;;19.82;43.91;101961.59;4949161;28;20035;-43
2022/02/08 07:59:05;;;;;;;2.78;0.20;;;;;;;19.81;43.98;101961.78;4951812;28;20453;-44
2022/02/08 08:01:31;;;;;;;2.00;0.20;;;;;;;19.83;44.03;101970.38;4949371;28;20134;-42
2022/02/08 08:03:56;;;;;;;14.80;0.38;;;;;;;19.84;44.20;101956.97;4960089;28;20146;-41
2022/02/08 08:06:22;;;;;;;22.27;13.82;;;;;;;19.86;44.45;101967.34;4942627;28;20085;-41
2022/02/08 08:08:48;;;;;;;9.48;5.57;;;;;;;19.83;44.85;101970.38;4953371;28;20871;-42
2022/02/08 08:11:22;;;;;;;11.13;5.22;;;;;;;19.81;45.05;101975.81;4962313;28;20046;-41
2022/02/08 08:14:01;;;;;;;8.57;2.95;;;;;;;19.78;45.49;101978.81;4947840;28;20135;-41
2022/02/08 08:19:20;;;;;;;4.25;2.10;;;;;;;19.77;45.62;101976.31;4950782;28;20095;-42
2022/02/08 08:21:47;;;;;;;9.30;1.35;;;;;;;19.77;45.56;101981.63;4961310;28;20571;-41
2022/02/08 08:24:13;;;;;;;4.65;1.20;;;;;;;19.76;45.59;101978.13;4959922;28;20037;-41
2022/02/08 08:26:40;;;;;;;1.88;0.82;;;;;;;19.73;45.58;101975.84;4957988;28;20031;-45
2022/02/08 08:29:06;;;;;;;2.97;1.05;;;;;;;19.74;45.61;101987.22;4957371;28;20035;-41
2022/02/08 08:31:32;;;;;;;8.52;0.88;;;;;;;19.77;45.79;101987.72;4955152;28;20042;-46
2022/02/08 08:33:58;;;;;;;9.80;0.70;;;;;;;19.79;45.70;101976.97;4956353;28;20038;-43
2022/02/08 08:36:25;;;;;;;3.63;0.65;;;;;;;19.79;45.77;101985.75;4952261;28;20047;-42
2022/02/08 08:38:54;;;;;;;2.47;0.50;;;;;;;19.75;45.90;101979.13;4930540;29;20047;-42
2022/02/08 08:51:45;;;;;;;4.13;0.70;;;;;;;19.64;44.11;101979.47;4934494;28;21210;-41
2022/02/08 08:54:12;;;;;;;12.70;0.50;;;;;;;19.64;43.66;101986.59;4961397;28;20521;-41
2022/02/08 08:56:39;;;;;;;15.23;0.60;;;;;;;19.63;42.80;101985.75;4955790;28;20037;-42
2022/02/08 08:59:07;;;;;;;13.43;0.50;;;;;;;19.61;42.01;101986.91;4949250;28;20071;-44
2022/02/08 09:01:32;;;;;;;6.15;0.68;;;;;;;19.59;41.34;101987.06;4944343;29;20182;-40
2022/02/08 09:03:58;;;;;;;4.72;0.30;;;;;;;19.59;41.03;101995.00;4943508;29;20154;-40
2022/02/08 09:06:24;;;;;;;3.38;0.40;;;;;;;19.60;40.94;102001.13;4931253;29;20042;-40
2022/02/08 09:08:50;;;;;;;2.50;0.60;;;;;;;19.60;40.86;101998.47;4950772;29;20142;-41
2022/02/08 09:27:19;;;;;;;4.72;0.28;;;;;;;19.55;41.65;101994.50;4967638;28;20391;-39
2022/02/08 09:32:16;;;;;;;3.67;0.82;;;;;;;19.57;40.11;101989.06;4956696;28;20039;-44
2022/02/08 09:34:43;;;;;;;2.83;0.50;;;;;;;19.53;38.52;101991.22;4940975;29;20028;-44
2022/02/08 09:37:10;;;;;;;4.00;0.98;;;;;;;19.51;37.01;101987.91;4948304;28;20035;-41
2022/02/08 09:39:37;;;;;;;2.13;0.38;;;;;;;19.47;36.21;101991.84;4954500;28;20054;-47
2022/02/08 09:42:05;;;;;;;2.88;0.70;;;;;;;19.44;35.87;101992.16;4966280;28;20042;-41
2022/02/08 09:44:33;;;;;;;2.35;0.52;;;;;;;19.43;35.43;101995.81;4958776;28;20288;-41
2022/02/08 09:47:01;;;;;;;2.67;0.60;;;;;;;19.40;34.22;101990.84;4956253;28;20066;-41
2022/02/08 09:49:28;;;;;;;2.33;0.40;;;;;;;19.38;33.92;102003.41;4955642;28;20032;-39
2022/02/08 09:51:55;;;;;;;2.45;0.63;;;;;;;19.37;33.87;101999.13;4953415;28;20059;-41
2022/02/08 09:54:22;;;;;;;5.00;0.40;;;;;;;19.34;33.65;101991.53;4950992;28;20039;-38
2022/02/08 09:56:47;;;;;;;2.25;0.30;;;;;;;19.32;33.05;101996.16;4932457;28;20031;-42
2022/02/08 09:59:13;;;;;;;9.52;0.47;;;;;;;19.31;32.62;101989.22;4947878;28;20035;-39
2022/02/08 10:01:38;;;;;;;6.38;0.40;;;;;;;19.29;32.77;101996.47;4948460;29;20024;-39
2022/02/08 10:04:04;;;;;;;3.33;0.50;;;;;;;19.27;33.34;101995.81;4949325;29;20027;-40
2022/02/08 10:06:31;;;;;;;1.30;0.50;;;;;;;19.25;33.59;101996.97;4956786;28;20035;-38
2022/02/08 10:09:03;;;;;;;1.38;0.35;;;;;;;19.22;33.81;101998.13;4949715;28;20134;-39
2022/02/08 10:11:40;;;;;;;9.77;0.60;;;;;;;19.23;34.01;102003.25;4949723;28;20102;-39
2022/02/08 10:14:20;;;;;;;1.13;0.30;;;;;;;19.20;34.64;101990.38;4950868;28;20490;-39
2022/02/08 10:20:20;;;;;;;2.88;0.40;;;;;;;19.16;35.34;101989.03;4968986;28;20049;-41
2022/02/08 10:22:49;;;;;;;1.73;0.22;;;;;;;19.16;35.99;101988.22;4950848;28;20054;-39
2022/02/08 10:25:30;;;;;;;3.83;0.50;;;;;;;19.17;36.22;101992.50;4973394;28;20043;-39
2022/02/08 10:28:03;;;;;;;1.30;0.28;;;;;;;19.18;36.70;101992.34;4974599;28;20091;-38
2022/02/08 10:38:40;;;;;;;1.70;0.60;;;;;;;18.97;31.80;101975.31;4968902;28;20629;-38
2022/02/08 10:41:14;;;;;;;1.67;0.35;;;;;;;18.95;30.90;101985.19;4966776;28;20066;-38
2022/02/08 10:43:42;;;;;;;2.25;0.40;;;;;;;18.95;30.96;101986.03;4983886;28;20260;-38
2022/02/08 10:46:22;;;;;;;1.13;0.38;;;;;;;18.90;30.10;101983.88;4951338;28;20066;-38
2022/02/08 10:48:59;;;;;;;3.78;0.40;;;;;;;18.89;30.11;101986.69;4964228;28;20040;-39
2022/02/08 10:51:25;;;;;;;3.53;0.50;;;;;;;18.85;29.45;101982.72;4961572;28;20034;-39
2022/02/08 10:54:00;;;;;;;1.30;0.40;;;;;;;18.84;28.84;101971.34;4968185;28;20136;-38
2022/02/08 10:56:29;;;;;;;1.05;0.50;;;;;;;18.84;29.04;101975.78;4967705;28;20489;-40
2022/02/08 10:59:11;;;;;;;4.75;0.30;;;;;;;18.84;29.07;101968.69;4947762;28;20046;-40
2022/02/08 11:01:45;;;;;;;1.27;0.30;;;;;;;18.84;29.52;101968.69;4968666;28;20064;-41
2022/02/08 11:04:18;;;;;;;1.35;0.30;;;;;;;18.84;29.69;101966.06;4971962;28;20177;-40
2022/02/08 11:07:09;;;;;;;1.55;0.30;;;;;;;18.84;29.75;101973.97;4968756;28;20031;-40
2022/02/08 11:09:50;;;;;;;1.10;0.25;;;;;;;18.85;29.91;101964.25;4967296;28;20054;-40
2022/02/08 11:12:34;;;;;;;0.73;0.20;;;;;;;18.83;30.08;101967.03;4961752;28;20329;-41
2022/02/08 11:15:20;;;;;;;1.38;0.30;;;;;;;18.85;30.75;101954.50;4948375;29;20178;-39
2022/02/08 11:20:42;;;;;;;4.90;0.28;;;;;;;18.85;30.88;101943.94;4948280;29;20079;-41
2022/02/08 11:23:22;;;;;;;1.20;0.40;;;;;;;18.84;31.24;101944.94;4930890;29;20476;-40
2022/02/08 11:25:51;;;;;;;1.02;0.30;;;;;;;18.86;31.67;101950.06;4930804;29;20035;-40
2022/02/08 11:28:33;;;;;;;2.42;0.25;;;;;;;18.86;31.91;101942.97;4946643;29;20039;-41
2022/02/08 11:31:17;;;;;;;1.10;0.40;;;;;;;18.86;32.29;101945.59;4947731;29;20039;-41
2022/02/08 11:53:37;;;;;;;32.30;1.80;;;;;;;19.60;42.20;101949.06;4944161;28;20106;-39
2022/02/08 12:01:21;;;;;;;;;;;;;;;20.17;56.69;101952.38;4963332;28;20042;-40
2022/02/08 12:06:51;;;;;;;1.50;0.30;;;;;;;20.26;52.75;101950.53;4950786;29;20481;-43
2022/02/08 12:09:27;;;;;;;1.23;0.50;;;;;;;20.03;51.78;101939.88;4955352;28;20451;-39
2022/02/08 12:12:11;;;;;;;2.72;0.32;;;;;;;19.83;49.01;101931.53;4951179;28;20055;-42
2022/02/08 12:33:54;;;;;;;0.95;0.30;;;;;;;19.32;43.08;101905.50;4959849;28;20042;-40
2022/02/08 13:04:21;;;;;;;1.90;0.30;;;;;;;19.18;41.62;101883.19;4926482;29;20031;-42
2022/02/08 14:01:42;;;;;;;3.33;0.17;;;;;;;18.96;39.96;101882.03;4952193;28;20050;-46
2022/02/08 14:07:03;;;;;;;4.03;0.20;;;;;;;18.96;39.50;101881.22;4966880;28;20057;-39
2022/02/08 14:14:53;;;;;;;1.35;0.30;;;;;;;18.95;39.48;101884.84;5005000;28;20060;-39
2022/02/08 14:20:03;;;;;;;0.68;0.10;;;;;;;18.94;39.37;101875.25;4989113;28;20449;-46
2022/02/08 14:22:53;;;;;;;0.43;0.10;;;;;;;18.92;39.35;101871.97;4988829;28;20037;-45
2022/02/08 14:30:39;;;;;;;0.55;0.20;;;;;;;18.87;39.16;101870.69;5006756;28;20047;-42
2022/02/08 14:36:00;;;;;;;0.57;0.25;;;;;;;18.86;39.30;101874.31;5007385;28;20038;-42
2022/02/08 14:57:29;;;;;;;0.68;0.20;;;;;;;18.82;39.40;101867.69;4986868;28;20390;-45
2022/02/08 14:58:52;;;;;;;2.25;0.20;;;;;;;18.79;39.73;101864.56;4976303;28;20052;-41
2022/02/08 15:05:55;;;;;;;1.08;0.10;;;;;;;18.78;40.08;101869.00;4981686;28;20099;-46
2022/02/08 15:08:33;;;;;;;1.00;0.20;;;;;;;18.79;40.05;101870.66;4969595;28;20049;-41
2022/02/08 15:11:06;;;;;;;0.50;0.10;;;;;;;18.79;40.11;101869.84;4969469;28;20145;-39
2022/02/08 15:13:32;;;;;;;1.58;0.20;;;;;;;18.80;40.23;101869.69;4986918;28;20383;-41
2022/02/08 15:18:42;;;;;;;0.30;0.10;;;;;;;18.79;40.16;101872.47;4987282;28;20081;-39
2022/02/08 15:21:13;;;;;;;1.25;0.20;;;;;;;18.79;40.07;101868.03;4969215;28;20027;-42
2022/02/08 15:23:38;;;;;;;1.45;0.10;;;;;;;18.80;40.17;101866.22;4969200;28;20031;-39
2022/02/08 15:26:05;;;;;;;1.20;0.17;;;;;;;18.79;40.17;101873.31;4985924;28;20038;-44
2022/02/08 15:28:31;;;;;;;1.55;0.20;;;;;;;18.79;40.09;101873.31;4968048;28;20029;-43
2022/02/08 15:30:58;;;;;;;1.20;0.10;;;;;;;18.78;40.23;101873.47;4987116;28;20026;-40
2022/02/08 15:33:26;;;;;;;0.82;0.20;;;;;;;18.77;40.06;101874.47;4986834;28;20030;-40
2022/02/08 15:35:53;;;;;;;0.55;0.20;;;;;;;18.77;40.20;101877.09;4986369;28;20034;-41
2022/02/08 15:38:21;;;;;;;0.55;0.20;;;;;;;18.76;40.17;101878.09;4991551;28;20030;-42
2022/02/08 15:40:47;;;;;;;0.80;0.25;;;;;;;18.74;40.42;101872.97;4990714;28;20030;-44
2022/02/08 15:43:14;;;;;;;1.10;0.13;;;;;;;18.72;40.24;101877.59;4988212;28;20030;-41
2022/02/08 15:45:50;;;;;;;0.43;0.10;;;;;;;18.70;40.37;101876.91;4993913;28;20597;-42
2022/02/08 15:48:20;;;;;;;2.05;0.20;;;;;;;18.70;40.46;101876.91;4971295;28;20030;-42
2022/02/08 16:00:20;;;;;;;5.55;3.05;;;;;;;18.72;40.72;101877.59;4983817;28;20048;-42
2022/02/08 16:56:58;;;;;;;3.83;1.38;;;;;;;19.44;39.07;101897.03;4981702;28;20118;-43
2022/02/08 16:59:31;;;;;;;3.08;1.13;;;;;;;19.47;39.19;101891.41;4978278;28;20171;-46
2022/02/08 17:01:59;;;;;;;3.30;1.27;;;;;;;19.53;39.21;101903.16;4965352;28;20031;-44
2022/02/08 17:04:25;;;;;;;2.15;1.15;;;;;;;19.59;39.07;101909.59;4963231;28;20030;-47
2022/02/08 17:06:51;;;;;;;2.25;1.02;;;;;;;19.63;39.03;101909.09;4980448;28;20037;-44
2022/02/08 17:09:24;;;;;;;1.70;1.10;;;;;;;19.70;38.80;101912.72;4993670;28;20147;-39
2022/02/08 17:12:15;;;;;;;3.42;1.08;;;;;;;19.76;38.66;101916.50;4986375;28;20046;-41
2022/02/08 17:45:14;;;;;;;4.80;1.73;;;;;;;20.23;38.32;101939.47;4997124;28;20128;-47
2022/02/08 17:47:43;;;;;;;7.35;2.20;;;;;;;20.24;38.41;101936.66;4995634;28;20073;-41
2022/02/08 17:50:11;;;;;;;4.63;1.50;;;;;;;20.30;38.55;101935.16;4970904;28;20077;-46
2022/02/08 17:52:37;;;;;;;5.22;1.83;;;;;;;20.37;38.59;101942.19;4970738;28;20433;-45
2022/02/08 17:55:05;;;;;;;4.70;1.63;;;;;;;20.40;38.67;101941.06;4966096;28;20034;-42
2022/02/08 17:57:30;;;;;;;2.45;1.10;;;;;;;20.41;38.54;101937.41;4979678;28;20038;-41
2022/02/08 17:59:57;;;;;;;3.17;1.45;;;;;;;20.41;38.26;101945.34;5008899;28;20033;-40
2022/02/08 18:02:23;;;;;;;6.10;1.08;;;;;;;20.41;38.18;101945.34;4983391;28;20086;-40
2022/02/08 18:04:49;;;;;;;3.30;1.23;;;;;;;20.41;38.19;101956.75;4971258;28;20517;-44
2022/02/08 18:07:19;;;;;;;2.20;1.02;;;;;;;20.41;38.19;101948.00;4988823;28;20026;-41
2022/02/08 18:09:46;;;;;;;1.77;1.17;;;;;;;20.42;38.05;101965.53;4986722;28;20045;-43
2022/02/08 18:12:12;;;;;;;3.78;1.10;;;;;;;20.42;38.20;101976.13;4984887;28;20074;-40
2022/02/08 18:14:41;;;;;;;1.75;1.30;;;;;;;20.42;38.13;101976.94;4994443;28;20310;-43
2022/02/08 18:17:14;;;;;;;2.30;0.95;;;;;;;20.42;38.08;101981.41;4992698;28;20737;-47
2022/02/08 18:19:47;;;;;;;2.20;1.17;;;;;;;20.41;38.05;101977.13;4976872;28;20034;-40
2022/02/08 18:25:38;;;;;;;3.47;1.17;;;;;;;20.40;38.18;101975.47;4994118;28;20042;-45
2022/02/08 19:07:50;;;;;;;5.18;1.08;;;;;;;20.40;44.00;101988.69;5002314;28;20573;-41
2022/02/08 19:13:37;;;;;;;3.97;1.30;;;;;;;20.33;43.62;101988.53;4995686;28;20119;-40
2022/02/08 19:21:38;;;;;;;1.70;0.60;;;;;;;20.27;43.14;101999.00;5000553;28;20460;-45
2022/02/08 19:24:04;;;;;;;2.33;0.98;;;;;;;20.26;43.00;101986.75;4985826;28;20073;-50